createdAt,value
2019-05-02T00:00:16.803Z,15.13
2019-05-02T00:02:46.712Z,16.77
2019-05-02T00:05:18.371Z,15.30
2019-05-02T00:07:48.309Z,16.93
2019-05-02T00:10:20.053Z,17.10
2019-05-02T00:12:50.540Z,15.43
2019-05-02T00:15:21.794Z,15.30
2019-05-02T00:17:51.505Z,16.23
2019-05-02T00:20:25.432Z,17.83
2019-05-02T00:22:52.319Z,15.73
2019-05-02T00:25:24.370Z,17.50
2019-05-02T00:27:53.871Z,14.93
2019-05-02T00:30:23.698Z,16.90
2019-05-02T00:32:58.305Z,16.37
2019-05-02T00:35:25.789Z,15.30
2019-05-02T00:37:57.468Z,17.10
2019-05-02T00:40:27.772Z,17.77
2019-05-02T00:42:58.351Z,17.50
2019-05-02T00:45:28.475Z,16.20
2019-05-02T00:48:11.718Z,16.80
2019-05-02T00:50:45.394Z,16.73
2019-05-02T00:53:13.543Z,18.27
2019-05-02T00:55:43.468Z,17.43
2019-05-02T00:58:12.860Z,16.57
2019-05-02T01:00:53.144Z,15.97
2019-05-02T01:03:22.083Z,16.43
2019-05-02T01:05:51.542Z,17.80
2019-05-02T01:08:20.897Z,16.80
2019-05-02T01:10:52.145Z,16.63
2019-05-02T01:13:35.990Z,17.23
2019-05-02T01:16:05.482Z,16.90
2019-05-02T01:18:37.209Z,19.57
2019-05-02T01:21:06.233Z,17.17
2019-05-02T01:23:35.627Z,18.37
2019-05-02T01:26:07.322Z,18.50
2019-05-02T01:28:40.962Z,16.40
2019-05-02T01:31:20.166Z,16.00
2019-05-02T01:33:56.707Z,18.00
2019-05-02T01:36:41.032Z,16.83
2019-05-02T01:39:11.164Z,16.87
2019-05-02T01:41:40.679Z,16.70
2019-05-02T01:44:10.139Z,15.90
2019-05-02T01:46:39.496Z,18.03
2019-05-02T01:49:08.990Z,18.43
2019-05-02T01:51:41.972Z,16.93
2019-05-02T01:54:11.301Z,19.53
2019-05-02T01:56:40.995Z,16.87
2019-05-02T01:59:10.379Z,18.53
2019-05-02T02:01:39.875Z,18.00
2019-05-02T02:04:09.288Z,19.07
2019-05-02T02:06:43.243Z,17.57
2019-05-02T02:09:11.247Z,18.87
2019-05-02T02:11:40.652Z,18.77
2019-05-02T02:14:13.446Z,17.40
2019-05-02T02:16:41.165Z,17.60
2019-05-02T02:19:15.383Z,18.17
2019-05-02T02:21:46.833Z,17.67
2019-05-02T02:24:21.120Z,17.73
2019-05-02T02:26:49.926Z,17.07
2019-05-02T02:29:19.561Z,20.33
2019-05-02T02:31:48.971Z,18.03
2019-05-02T02:34:21.408Z,16.83
2019-05-02T02:36:49.951Z,19.33
2019-05-02T02:39:19.521Z,16.40
2019-05-02T02:41:52.329Z,18.87
2019-05-02T02:44:33.776Z,18.30
2019-05-02T02:47:01.356Z,18.77
2019-05-02T02:49:30.925Z,18.50
2019-05-02T02:52:05.037Z,15.93
2019-05-02T02:54:36.489Z,19.50
2019-05-02T02:57:02.438Z,18.27
2019-05-02T02:59:31.825Z,16.93
2019-05-02T03:02:09.000Z,16.93
2019-05-02T03:04:33.275Z,17.63
2019-05-02T03:07:02.627Z,17.80
2019-05-02T03:09:32.216Z,16.97
2019-05-02T03:12:21.648Z,18.93
2019-05-02T03:14:59.147Z,18.27
2019-05-02T03:17:29.727Z,17.63
2019-05-02T03:20:01.771Z,18.87
2019-05-02T03:22:34.965Z,17.57
2019-05-02T03:25:01.306Z,17.60
2019-05-02T03:27:37.304Z,18.67
2019-05-02T03:30:03.488Z,16.80
2019-05-02T03:32:36.009Z,18.23
2019-05-02T03:35:05.195Z,17.67
2019-05-02T03:37:34.582Z,17.80
2019-05-02T03:40:04.191Z,21.07
2019-05-02T03:42:43.687Z,17.63
2019-05-02T03:45:05.515Z,19.03
2019-05-02T03:47:36.948Z,18.70
2019-05-02T03:50:09.235Z,16.97
2019-05-02T03:52:43.916Z,15.87
2019-05-02T03:55:10.000Z,16.73
2019-05-02T03:57:42.156Z,18.07
2019-05-02T04:00:13.623Z,18.80
2019-05-02T04:02:43.670Z,18.17
2019-05-02T04:05:13.212Z,17.40
2019-05-02T04:07:42.898Z,16.27
2019-05-02T04:10:19.711Z,17.77
2019-05-02T04:12:45.541Z,16.60
2019-05-02T04:15:16.077Z,20.83
2019-05-02T04:17:46.133Z,18.33
2019-05-02T04:20:15.752Z,20.30
2019-05-02T04:22:49.089Z,19.47
2019-05-02T04:25:16.499Z,18.37
2019-05-02T04:27:46.164Z,17.17
2019-05-02T04:30:15.725Z,16.73
2019-05-02T04:32:49.612Z,18.73
2019-05-02T04:35:16.618Z,17.13
2019-05-02T04:37:46.037Z,18.73
2019-05-02T04:40:17.984Z,18.93
2019-05-02T04:42:51.251Z,18.97
2019-05-02T04:45:26.400Z,17.97
2019-05-02T04:47:58.264Z,19.67
2019-05-02T04:50:25.295Z,20.67
2019-05-02T04:52:53.751Z,17.87
2019-05-02T04:55:29.102Z,23.33
2019-05-02T04:57:53.747Z,20.40
2019-05-02T05:00:29.172Z,18.50
2019-05-02T05:02:58.525Z,19.43
2019-05-02T05:05:31.094Z,18.37
2019-05-02T05:07:59.236Z,18.50
2019-05-02T05:10:40.341Z,18.90
2019-05-02T05:12:59.712Z,17.90
2019-05-02T05:15:39.842Z,19.43
2019-05-02T05:18:04.386Z,19.00
2019-05-02T05:20:31.393Z,18.30
2019-05-02T05:23:00.798Z,17.40
2019-05-02T05:25:44.189Z,19.03
2019-05-02T05:28:13.551Z,18.93
2019-05-02T05:30:45.329Z,20.30
2019-05-02T05:33:15.098Z,19.60
2019-05-02T05:35:48.872Z,18.47
2019-05-02T05:38:18.180Z,19.67
2019-05-02T05:40:47.953Z,19.97
2019-05-02T05:43:20.602Z,19.07
2019-05-02T05:45:56.124Z,17.50
2019-05-02T05:48:21.240Z,18.93
2019-05-02T05:50:50.576Z,19.60
2019-05-02T05:53:21.418Z,19.17
2019-05-02T05:55:53.551Z,19.60
2019-05-02T05:58:22.228Z,18.33
2019-05-02T06:00:55.433Z,23.27
2019-05-02T06:03:22.717Z,16.97
2019-05-02T06:05:52.141Z,19.57
2019-05-02T06:08:21.750Z,21.23
2019-05-02T06:10:51.100Z,22.63
2019-05-02T06:13:20.443Z,25.37
2019-05-02T06:16:01.642Z,21.60
2019-05-02T06:18:20.832Z,22.63
2019-05-02T06:20:50.243Z,24.30
2019-05-02T06:23:19.795Z,23.67
2019-05-02T06:25:49.404Z,23.23
2019-05-02T06:28:18.744Z,24.73
2019-05-02T06:30:48.144Z,24.20
2019-05-02T06:33:17.498Z,24.73
2019-05-02T06:35:46.849Z,23.80
2019-05-02T06:38:16.174Z,26.57
2019-05-02T06:40:46.662Z,25.60
2019-05-02T06:43:17.233Z,25.63
2019-05-02T06:45:46.784Z,25.40
2019-05-02T06:48:17.787Z,26.87
2019-05-02T06:50:47.204Z,26.67
2019-05-02T06:53:16.578Z,26.47
2019-05-02T06:55:46.948Z,27.47
2019-05-02T06:58:16.522Z,24.47
2019-05-02T07:00:56.630Z,25.37
2019-05-02T07:03:17.186Z,28.33
2019-05-02T07:05:49.068Z,28.37
2019-05-02T07:08:17.840Z,20.13
2019-05-02T07:10:47.239Z,21.87
2019-05-02T07:13:17.187Z,26.73
2019-05-02T07:15:48.682Z,24.67
2019-05-02T07:18:20.016Z,27.13
2019-05-02T07:20:51.814Z,27.70
2019-05-02T07:23:21.268Z,26.07
2019-05-02T07:25:50.868Z,26.50
2019-05-02T07:28:20.279Z,25.97
2019-05-02T07:30:49.657Z,25.30
2019-05-02T07:33:19.057Z,26.10
2019-05-02T07:35:48.607Z,22.63
2019-05-02T07:38:20.241Z,26.73
2019-05-02T07:40:53.067Z,24.50
2019-05-02T07:43:22.223Z,23.17
2019-05-02T07:45:51.260Z,27.93
2019-05-02T07:48:20.850Z,25.07
2019-05-02T07:50:53.266Z,20.60
2019-05-02T07:53:23.983Z,25.90
2019-05-02T07:55:54.686Z,25.53
2019-05-02T07:58:24.095Z,26.60
2019-05-02T08:00:53.447Z,25.97
2019-05-02T08:03:22.874Z,27.47
2019-05-02T08:05:54.472Z,24.83
2019-05-02T08:08:25.065Z,23.17
2019-05-02T08:11:01.437Z,23.30
2019-05-02T08:13:25.859Z,25.23
2019-05-02T08:15:55.278Z,25.13
2019-05-02T08:18:25.087Z,18.37
2019-05-02T08:20:57.376Z,22.43
2019-05-02T08:23:27.842Z,21.93
2019-05-02T08:25:59.820Z,23.10
2019-05-02T08:28:30.860Z,20.83
2019-05-02T08:31:00.216Z,21.80
2019-05-02T08:33:34.898Z,21.00
2019-05-02T08:36:00.976Z,22.97
2019-05-02T08:38:30.540Z,20.23
2019-05-02T08:41:00.064Z,17.60
2019-05-02T08:43:29.813Z,18.87
2019-05-02T08:45:59.206Z,19.87
2019-05-02T08:48:28.619Z,17.63
2019-05-02T08:50:58.048Z,11.37
2019-05-02T08:53:28.661Z,17.13
2019-05-02T08:55:58.224Z,18.33
2019-05-02T08:58:27.557Z,21.03
2019-05-02T09:00:56.923Z,17.80
2019-05-02T09:03:28.036Z,15.80
2019-05-02T09:06:05.575Z,18.27
2019-05-02T09:08:28.819Z,16.83
2019-05-02T09:10:58.435Z,17.17
2019-05-02T09:13:29.514Z,20.27
2019-05-02T09:15:59.096Z,17.63
2019-05-02T09:18:35.275Z,15.50
2019-05-02T09:20:59.495Z,16.77
2019-05-02T09:23:35.053Z,16.80
2019-05-02T09:25:59.929Z,12.43
2019-05-02T09:28:31.882Z,12.70
2019-05-02T09:31:04.980Z,25.30
2019-05-02T09:33:32.336Z,17.90
2019-05-02T09:36:02.421Z,13.70
2019-05-02T09:38:32.958Z,17.07
2019-05-02T09:41:15.394Z,15.20
2019-05-02T09:43:34.881Z,19.33
2019-05-02T09:46:07.279Z,16.00
2019-05-02T09:48:35.848Z,16.63
2019-05-02T09:51:12.902Z,17.00
2019-05-02T09:53:36.477Z,16.57
2019-05-02T09:56:06.055Z,14.97
2019-05-02T09:58:35.608Z,15.60
2019-05-02T10:01:06.947Z,15.80
2019-05-02T10:03:36.505Z,19.50
2019-05-02T10:06:16.498Z,15.67
2019-05-02T10:08:43.442Z,11.80
2019-05-02T10:11:11.822Z,14.27
2019-05-02T10:13:42.435Z,15.10
2019-05-02T10:16:12.300Z,12.70
2019-05-02T10:18:43.112Z,16.17
2019-05-02T10:21:16.942Z,15.60
2019-05-02T10:23:43.825Z,16.00
2019-05-02T10:26:19.863Z,15.17
2019-05-02T10:28:49.378Z,15.63
2019-05-02T10:31:16.061Z,13.80
2019-05-02T10:33:45.484Z,13.47
2019-05-02T10:36:19.831Z,12.23
2019-05-02T10:38:48.996Z,10.63
2019-05-02T10:41:16.938Z,11.23
2019-05-02T10:43:46.979Z,15.03
2019-05-02T10:46:37.785Z,14.23
2019-05-02T10:49:12.659Z,12.13
2019-05-02T10:51:49.049Z,11.27
2019-05-02T10:54:13.031Z,12.90
2019-05-02T10:56:42.459Z,12.03
2019-05-02T10:59:11.942Z,15.83
2019-05-02T11:01:43.377Z,8.63
2019-05-02T11:04:14.427Z,18.57
2019-05-02T11:06:46.344Z,17.57
2019-05-02T11:09:16.858Z,15.37
2019-05-02T11:11:46.152Z,16.27
2019-05-02T11:14:17.707Z,15.13
2019-05-02T11:16:57.577Z,15.07
2019-05-02T11:19:34.764Z,14.50
2019-05-02T11:22:04.911Z,14.07
2019-05-02T11:24:34.422Z,13.47
2019-05-02T11:27:04.957Z,16.80
2019-05-02T11:29:34.558Z,13.90
2019-05-02T11:32:04.692Z,14.20
2019-05-02T11:34:35.596Z,13.70
2019-05-02T11:37:05.162Z,14.93
2019-05-02T11:39:44.327Z,15.90
2019-05-02T11:42:06.300Z,16.60
2019-05-02T11:44:35.797Z,15.90
2019-05-02T11:47:12.605Z,13.33
2019-05-02T11:49:46.730Z,12.73
2019-05-02T11:52:16.212Z,16.13
2019-05-02T11:54:48.437Z,19.47
2019-05-02T11:57:22.805Z,15.37
2019-05-02T11:59:47.774Z,17.30
2019-05-02T12:02:36.612Z,15.93
2019-05-02T12:05:12.771Z,10.57
2019-05-02T12:07:42.415Z,15.77
2019-05-02T12:10:12.540Z,15.27
2019-05-02T12:12:42.958Z,12.90
2019-05-02T12:15:12.834Z,15.23
2019-05-02T12:17:42.203Z,15.23
2019-05-02T12:20:11.946Z,13.23
2019-05-02T12:22:42.394Z,16.43
2019-05-02T12:25:12.695Z,15.03
2019-05-02T12:27:43.485Z,14.90
2019-05-02T12:30:13.453Z,17.47
2019-05-02T12:32:42.878Z,17.57
2019-05-02T12:35:12.482Z,14.30
2019-05-02T12:37:42.394Z,16.00
2019-05-02T12:40:12.365Z,16.30
2019-05-02T12:42:42.022Z,16.90
2019-05-02T12:45:12.683Z,14.73
2019-05-02T12:47:42.771Z,15.90
2019-05-02T12:50:12.934Z,17.30
2019-05-02T12:52:42.864Z,17.20
2019-05-02T12:55:12.876Z,15.03
2019-05-02T12:57:42.980Z,14.73
2019-05-02T13:00:13.368Z,16.67
2019-05-02T13:02:47.431Z,14.27
2019-05-02T13:05:17.108Z,16.70
2019-05-02T13:07:50.503Z,15.77
2019-05-02T13:10:21.879Z,14.73
2019-05-02T13:12:53.196Z,18.53
2019-05-02T13:15:22.681Z,18.40
2019-05-02T13:17:52.317Z,16.83
2019-05-02T13:20:24.874Z,16.57
2019-05-02T13:23:05.575Z,18.47
2019-05-02T13:25:36.884Z,18.07
2019-05-02T13:28:06.423Z,16.17
2019-05-02T13:30:43.661Z,16.57
2019-05-02T13:33:13.305Z,17.60
2019-05-02T13:35:47.341Z,16.67
2019-05-02T13:38:18.784Z,17.50
2019-05-02T13:40:48.289Z,15.83
2019-05-02T13:43:18.050Z,15.37
2019-05-02T13:46:02.257Z,16.20
2019-05-02T13:48:32.321Z,16.97
2019-05-02T13:51:03.933Z,19.87
2019-05-02T13:53:35.161Z,17.20
2019-05-02T13:56:21.960Z,19.97
2019-05-02T13:58:54.508Z,13.33
2019-05-02T14:01:24.290Z,19.17
2019-05-02T14:04:03.594Z,16.47
2019-05-02T14:06:37.699Z,21.03
2019-05-02T14:09:23.886Z,20.73
2019-05-02T14:12:04.288Z,20.57
2019-05-02T14:14:33.681Z,16.53
2019-05-02T14:17:03.193Z,20.33
2019-05-02T14:19:35.502Z,17.23
2019-05-02T14:22:05.295Z,19.03
2019-05-02T14:24:34.789Z,17.23
2019-05-02T14:27:07.161Z,15.30
2019-05-02T14:29:35.622Z,16.80
2019-05-02T14:32:20.033Z,16.53
2019-05-02T14:34:42.480Z,18.67
2019-05-02T14:39:48.917Z,18.97
2019-05-02T14:42:22.210Z,17.57
2019-05-02T14:45:07.187Z,20.77
2019-05-02T14:47:22.412Z,19.23
2019-05-02T14:49:52.289Z,19.20
2019-05-02T14:52:23.089Z,21.87
2019-05-02T14:54:55.968Z,19.07
2019-05-02T14:57:27.227Z,21.57
2019-05-02T14:59:59.345Z,20.93
2019-05-02T15:02:39.225Z,18.53
2019-05-02T15:05:07.328Z,14.60
2019-05-02T15:07:38.515Z,16.73
2019-05-02T15:10:08.766Z,17.73
2019-05-02T15:12:41.774Z,18.47
2019-05-02T15:15:12.283Z,15.90
2019-05-02T15:17:42.004Z,16.83
2019-05-02T15:20:13.028Z,18.33
2019-05-02T15:22:42.826Z,17.90
2019-05-02T15:25:17.727Z,17.87
2019-05-02T15:27:45.304Z,19.00
2019-05-02T15:30:15.961Z,17.07
2019-05-02T15:33:03.336Z,20.07
2019-05-02T15:35:42.462Z,18.20
2019-05-02T15:38:18.385Z,19.37
2019-05-02T15:40:49.809Z,17.93
2019-05-02T15:43:14.020Z,16.07
2019-05-02T15:45:45.432Z,18.80
2019-05-02T15:48:22.617Z,20.03
2019-05-02T15:50:52.237Z,17.17
2019-05-02T15:53:27.387Z,19.57
2019-05-02T15:55:56.787Z,18.90
2019-05-02T15:58:28.125Z,16.30
2019-05-02T16:01:12.044Z,18.93
2019-05-02T16:03:46.089Z,17.03
2019-05-02T16:06:16.524Z,16.17
2019-05-02T16:08:46.582Z,18.37
2019-05-02T16:11:17.988Z,17.80
2019-05-02T16:13:54.067Z,19.17
2019-05-02T16:16:21.941Z,16.80
2019-05-02T16:18:52.593Z,19.70
2019-05-02T16:21:30.007Z,15.93
2019-05-02T16:24:16.314Z,20.93
2019-05-02T16:26:46.981Z,18.03
2019-05-02T16:29:23.332Z,17.10
2019-05-02T16:31:59.809Z,19.07
2019-05-02T16:34:33.826Z,22.10
2019-05-02T16:37:06.963Z,18.77
2019-05-02T16:39:34.674Z,21.70
2019-05-02T16:42:04.750Z,19.20
2019-05-02T16:44:34.622Z,19.30
2019-05-02T16:47:04.397Z,21.33
2019-05-02T16:49:33.901Z,20.37
2019-05-02T16:52:07.479Z,22.53
2019-05-02T16:54:41.534Z,19.30
2019-05-02T16:57:05.607Z,20.53
2019-05-02T16:59:35.356Z,21.67
2019-05-02T17:02:08.007Z,20.00
2019-05-02T17:04:38.706Z,21.20
2019-05-02T17:07:11.540Z,25.07
2019-05-02T17:09:55.054Z,21.33
2019-05-02T17:12:24.540Z,20.63
2019-05-02T17:15:13.694Z,18.30
2019-05-02T17:17:42.671Z,21.50
2019-05-02T17:20:16.538Z,21.23
2019-05-02T17:22:44.499Z,23.97
2019-05-02T17:25:18.361Z,21.47
2019-05-02T17:27:47.783Z,24.43
2019-05-02T17:30:18.222Z,19.73
2019-05-02T17:32:47.643Z,22.60
2019-05-02T17:35:17.467Z,21.50
2019-05-02T17:37:49.127Z,19.87
2019-05-02T17:40:22.573Z,21.23
2019-05-02T17:42:52.505Z,19.47
2019-05-02T17:45:23.905Z,22.33
2019-05-02T17:47:53.523Z,22.90
2019-05-02T17:50:32.966Z,21.63
2019-05-02T17:53:05.320Z,22.50
2019-05-02T17:55:40.417Z,22.07
2019-05-02T17:58:12.252Z,22.07
2019-05-02T18:00:39.654Z,19.27
2019-05-02T18:03:09.062Z,19.00
2019-05-02T18:05:38.671Z,23.90
2019-05-02T18:08:11.037Z,18.90
2019-05-02T18:10:39.229Z,18.40
2019-05-02T18:13:09.247Z,22.03
2019-05-02T18:15:39.409Z,20.83
2019-05-02T18:18:09.107Z,21.60
2019-05-02T18:20:42.628Z,19.57
2019-05-02T18:23:12.291Z,22.57
2019-05-02T18:25:43.324Z,23.20
2019-05-02T18:28:21.120Z,17.90
2019-05-02T18:30:44.772Z,22.57
2019-05-02T18:33:15.973Z,17.60
2019-05-02T18:35:46.995Z,16.67
2019-05-02T18:38:20.993Z,17.20
2019-05-02T18:40:48.935Z,18.20
2019-05-02T18:43:18.371Z,16.40
2019-05-02T18:45:51.543Z,16.47
2019-05-02T18:48:22.002Z,17.50
2019-05-02T18:50:52.933Z,16.53
2019-05-02T18:53:24.229Z,16.90
2019-05-02T18:55:56.807Z,16.67
2019-05-02T18:58:25.157Z,19.10
2019-05-02T19:00:56.146Z,17.63
2019-05-02T19:03:25.652Z,20.53
2019-05-02T19:05:57.541Z,19.23
2019-05-02T19:08:32.236Z,20.23
2019-05-02T19:11:09.007Z,17.23
2019-05-02T19:13:32.729Z,21.40
2019-05-02T19:16:02.298Z,18.97
2019-05-02T19:18:32.401Z,17.03
2019-05-02T19:21:05.791Z,18.17
2019-05-02T19:23:36.346Z,16.73
2019-05-02T19:26:10.182Z,16.83
2019-05-02T19:28:52.334Z,18.80
2019-05-02T19:31:22.469Z,20.40
2019-05-02T19:33:52.725Z,20.30
2019-05-02T19:36:27.545Z,21.87
2019-05-02T19:38:57.425Z,22.10
2019-05-02T19:41:26.731Z,21.03
2019-05-02T19:43:56.336Z,18.70
2019-05-02T19:46:34.502Z,20.03
2019-05-02T19:48:56.826Z,18.43
2019-05-02T19:51:28.143Z,19.07
2019-05-02T19:54:00.861Z,18.23
2019-05-02T19:56:38.108Z,17.80
2019-05-02T19:59:02.723Z,17.83
2019-05-02T20:01:32.495Z,17.87
2019-05-02T20:04:09.371Z,17.07
2019-05-02T20:06:41.842Z,17.97
2019-05-02T20:09:11.515Z,16.43
2019-05-02T20:11:42.554Z,20.30
2019-05-02T20:14:13.799Z,17.40
2019-05-02T20:16:48.258Z,16.77
2019-05-02T20:19:23.157Z,19.30
2019-05-02T20:21:57.031Z,15.97
2019-05-02T20:24:34.233Z,17.20
2019-05-02T20:27:14.427Z,18.00
2019-05-02T20:29:44.889Z,18.10
2019-05-02T20:32:14.717Z,17.50
2019-05-02T20:34:44.347Z,17.60
2019-05-02T20:37:14.661Z,16.97
2019-05-02T20:39:44.148Z,18.37
2019-05-02T20:42:13.612Z,19.37
2019-05-02T20:44:43.062Z,18.10
2019-05-02T20:47:15.776Z,15.50
2019-05-02T20:49:45.460Z,18.43
2019-05-02T20:52:14.875Z,16.37
2019-05-02T20:54:44.760Z,18.47
2019-05-02T20:57:17.466Z,19.40
2019-05-02T20:59:49.492Z,18.80
2019-05-02T21:02:21.203Z,17.27
2019-05-02T21:04:52.105Z,17.90
2019-05-02T21:07:33.049Z,18.93
2019-05-02T21:10:07.277Z,17.00
2019-05-02T21:12:36.889Z,19.87
2019-05-02T21:15:06.747Z,17.27
2019-05-02T21:17:36.167Z,17.97
2019-05-02T21:20:06.949Z,17.70
2019-05-02T21:22:36.439Z,17.27
2019-05-02T21:25:08.182Z,17.63
2019-05-02T21:27:38.451Z,17.30
2019-05-02T21:30:12.366Z,17.43
2019-05-02T21:32:44.491Z,17.63
2019-05-02T21:35:14.831Z,17.30
2019-05-02T21:37:44.718Z,17.10
2019-05-02T21:40:14.378Z,16.77
2019-05-02T21:42:44.254Z,17.40
2019-05-02T21:45:14.163Z,16.37
2019-05-02T21:47:46.336Z,19.03
2019-05-02T21:50:17.976Z,23.10
2019-05-02T21:52:53.161Z,22.43
2019-05-02T21:55:36.784Z,23.27
2019-05-02T21:58:06.175Z,25.30
2019-05-02T22:00:38.371Z,25.80
2019-05-02T22:03:08.793Z,24.33
2019-05-02T22:05:42.273Z,23.10
2019-05-02T22:08:12.696Z,24.67
2019-05-02T22:10:44.698Z,23.20
2019-05-02T22:13:15.718Z,24.00
2019-05-02T22:15:45.520Z,22.33
2019-05-02T22:18:15.076Z,20.87
2019-05-02T22:20:44.497Z,24.73
2019-05-02T22:23:14.351Z,24.40
2019-05-02T22:25:43.976Z,24.77
2019-05-02T22:28:14.416Z,21.90
2019-05-02T22:30:43.841Z,24.93
2019-05-02T22:33:13.420Z,24.87
2019-05-02T22:35:43.404Z,22.33
2019-05-02T22:38:33.830Z,23.97
2019-05-02T22:41:03.629Z,25.53
2019-05-02T22:43:33.150Z,21.17
2019-05-02T22:46:04.623Z,23.73
2019-05-02T22:48:34.207Z,22.27
2019-05-02T22:51:03.662Z,30.20
2019-05-02T22:53:33.039Z,22.83
2019-05-02T22:56:04.128Z,22.13
2019-05-02T22:58:33.679Z,23.80
2019-05-02T23:01:05.940Z,23.83
2019-05-02T23:03:35.376Z,23.90
2019-05-02T23:06:06.189Z,23.43
2019-05-02T23:08:35.786Z,25.40
2019-05-02T23:11:06.987Z,21.83
2019-05-02T23:13:38.776Z,24.60
2019-05-02T23:16:10.016Z,24.50
2019-05-02T23:18:39.390Z,25.60
2019-05-02T23:21:08.804Z,27.37
2019-05-02T23:23:38.514Z,21.93
2019-05-02T23:26:12.823Z,27.27
2019-05-02T23:28:44.515Z,26.87
2019-05-02T23:31:14.027Z,24.57
2019-05-02T23:33:59.172Z,26.47
2019-05-02T23:36:32.615Z,26.23
2019-05-02T23:39:02.282Z,25.20
2019-05-02T23:41:33.720Z,26.60
2019-05-02T23:44:03.215Z,27.40
2019-05-02T23:46:32.620Z,26.23
2019-05-02T23:49:02.236Z,25.80
2019-05-02T23:51:32.209Z,27.20
2019-05-02T23:54:02.214Z,28.20
2019-05-02T23:56:32.566Z,28.93
2019-05-02T23:59:02.774Z,27.50
